sensor_id;sensor_type;location;lat;lon;timestamp;P1;durP1;ratioP1;P2;durP2;ratioP2
51883;SDS011;37915;53.254;6.598;2023-07-24T00:01:59;8.20;;;5.90;;
51883;SDS011;37915;53.254;6.598;2023-07-24T00:04:25;13.60;;;5.55;;
51883;SDS011;37915;53.254;6.598;2023-07-24T00:06:50;10.23;;;5.65;;
51883;SDS011;37915;53.254;6.598;2023-07-24T00:09:16;14.93;;;6.30;;
51883;SDS011;37915;53.254;6.598;2023-07-24T00:11:41;10.75;;;5.50;;
51883;SDS011;37915;53.254;6.598;2023-07-24T00:14:07;11.45;;;5.47;;
51883;SDS011;37915;53.254;6.598;2023-07-24T00:16:33;10.85;;;4.88;;
51883;SDS011;37915;53.254;6.598;2023-07-24T00:18:58;8.63;;;5.55;;
51883;SDS011;37915;53.254;6.598;2023-07-24T00:21:24;10.55;;;5.60;;
51883;SDS011;37915;53.254;6.598;2023-07-24T00:23:50;8.85;;;5.32;;
51883;SDS011;37915;53.254;6.598;2023-07-24T00:26:15;11.27;;;5.45;;
51883;SDS011;37915;53.254;6.598;2023-07-24T00:28:41;10.88;;;5.10;;
51883;SDS011;37915;53.254;6.598;2023-07-24T00:31:07;11.45;;;5.72;;
51883;SDS011;37915;53.254;6.598;2023-07-24T00:33:32;12.98;;;6.65;;
51883;SDS011;37915;53.254;6.598;2023-07-24T00:35:58;10.68;;;5.15;;
51883;SDS011;37915;53.254;6.598;2023-07-24T00:38:24;8.70;;;5.00;;
51883;SDS011;37915;53.254;6.598;2023-07-24T00:40:50;9.20;;;5.35;;
51883;SDS011;37915;53.254;6.598;2023-07-24T00:43:16;9.00;;;5.05;;
51883;SDS011;37915;53.254;6.598;2023-07-24T00:45:42;9.05;;;5.10;;
51883;SDS011;37915;53.254;6.598;2023-07-24T00:48:09;9.55;;;5.07;;
51883;SDS011;37915;53.254;6.598;2023-07-24T00:50:35;10.27;;;5.57;;
51883;SDS011;37915;53.254;6.598;2023-07-24T00:53:02;12.52;;;5.30;;
51883;SDS011;37915;53.254;6.598;2023-07-24T00:55:28;11.18;;;5.22;;
51883;SDS011;37915;53.254;6.598;2023-07-24T00:57:55;9.63;;;5.30;;
51883;SDS011;37915;53.254;6.598;2023-07-24T01:00:25;8.95;;;4.65;;
51883;SDS011;37915;53.254;6.598;2023-07-24T01:02:51;10.88;;;4.72;;
51883;SDS011;37915;53.254;6.598;2023-07-24T01:05:17;13.45;;;6.20;;
51883;SDS011;37915;53.254;6.598;2023-07-24T01:07:43;12.40;;;5.47;;
51883;SDS011;37915;53.254;6.598;2023-07-24T01:10:08;9.52;;;5.80;;
51883;SDS011;37915;53.254;6.598;2023-07-24T01:15:17;10.93;;;6.30;;
51883;SDS011;37915;53.254;6.598;2023-07-24T01:17:52;10.10;;;5.80;;
51883;SDS011;37915;53.254;6.598;2023-07-24T01:20:25;8.80;;;5.38;;
51883;SDS011;37915;53.254;6.598;2023-07-24T01:23:04;13.23;;;6.15;;
51883;SDS011;37915;53.254;6.598;2023-07-24T01:25:56;18.27;;;6.57;;
51883;SDS011;37915;53.254;6.598;2023-07-24T01:28:24;13.77;;;6.20;;
51883;SDS011;37915;53.254;6.598;2023-07-24T01:30:50;12.82;;;6.07;;
51883;SDS011;37915;53.254;6.598;2023-07-24T01:33:16;13.77;;;6.88;;
51883;SDS011;37915;53.254;6.598;2023-07-24T01:35:42;15.75;;;7.38;;
51883;SDS011;37915;53.254;6.598;2023-07-24T01:38:10;13.52;;;5.55;;
51883;SDS011;37915;53.254;6.598;2023-07-24T01:40:41;10.32;;;6.47;;
51883;SDS011;37915;53.254;6.598;2023-07-24T01:43:08;10.43;;;6.45;;
51883;SDS011;37915;53.254;6.598;2023-07-24T01:45:34;13.50;;;7.53;;
51883;SDS011;37915;53.254;6.598;2023-07-24T01:48:01;12.80;;;7.57;;
51883;SDS011;37915;53.254;6.598;2023-07-24T01:50:29;11.27;;;7.43;;
51883;SDS011;37915;53.254;6.598;2023-07-24T01:52:54;13.90;;;6.78;;
51883;SDS011;37915;53.254;6.598;2023-07-24T01:55:20;13.43;;;7.45;;
51883;SDS011;37915;53.254;6.598;2023-07-24T01:57:46;13.65;;;7.53;;
51883;SDS011;37915;53.254;6.598;2023-07-24T02:00:11;12.85;;;7.55;;
51883;SDS011;37915;53.254;6.598;2023-07-24T02:02:37;18.00;;;8.25;;
51883;SDS011;37915;53.254;6.598;2023-07-24T02:05:03;11.73;;;7.40;;
51883;SDS011;37915;53.254;6.598;2023-07-24T02:07:29;12.88;;;8.15;;
51883;SDS011;37915;53.254;6.598;2023-07-24T02:09:55;12.52;;;7.80;;
51883;SDS011;37915;53.254;6.598;2023-07-24T02:12:20;15.52;;;8.63;;
51883;SDS011;37915;53.254;6.598;2023-07-24T02:14:46;12.95;;;8.45;;
51883;SDS011;37915;53.254;6.598;2023-07-24T02:17:16;13.57;;;8.40;;
51883;SDS011;37915;53.254;6.598;2023-07-24T02:19:43;13.15;;;8.45;;
51883;SDS011;37915;53.254;6.598;2023-07-24T02:22:08;14.43;;;8.75;;
51883;SDS011;37915;53.254;6.598;2023-07-24T02:24:34;13.18;;;9.23;;
51883;SDS011;37915;53.254;6.598;2023-07-24T02:27:00;11.57;;;8.55;;
51883;SDS011;37915;53.254;6.598;2023-07-24T02:29:26;13.73;;;9.30;;
51883;SDS011;37915;53.254;6.598;2023-07-24T02:31:53;15.38;;;9.68;;
51883;SDS011;37915;53.254;6.598;2023-07-24T02:34:19;13.73;;;9.32;;
51883;SDS011;37915;53.254;6.598;2023-07-24T02:36:49;12.80;;;9.25;;
51883;SDS011;37915;53.254;6.598;2023-07-24T02:39:15;13.00;;;8.80;;
51883;SDS011;37915;53.254;6.598;2023-07-24T02:41:41;14.32;;;9.38;;
51883;SDS011;37915;53.254;6.598;2023-07-24T02:44:07;16.98;;;10.82;;
51883;SDS011;37915;53.254;6.598;2023-07-24T02:46:32;17.23;;;9.55;;
51883;SDS011;37915;53.254;6.598;2023-07-24T02:48:58;12.13;;;9.05;;
51883;SDS011;37915;53.254;6.598;2023-07-24T02:51:24;16.02;;;10.07;;
51883;SDS011;37915;53.254;6.598;2023-07-24T02:53:49;14.63;;;9.60;;
51883;SDS011;37915;53.254;6.598;2023-07-24T02:56:15;13.93;;;9.52;;
51883;SDS011;37915;53.254;6.598;2023-07-24T02:58:41;15.02;;;9.10;;
51883;SDS011;37915;53.254;6.598;2023-07-24T03:01:06;15.52;;;10.18;;
51883;SDS011;37915;53.254;6.598;2023-07-24T03:03:33;14.63;;;9.75;;
51883;SDS011;37915;53.254;6.598;2023-07-24T03:05:59;13.32;;;9.77;;
51883;SDS011;37915;53.254;6.598;2023-07-24T03:08:25;16.40;;;10.55;;
51883;SDS011;37915;53.254;6.598;2023-07-24T03:10:51;14.30;;;10.35;;
51883;SDS011;37915;53.254;6.598;2023-07-24T03:13:17;15.77;;;9.05;;
51883;SDS011;37915;53.254;6.598;2023-07-24T03:15:42;17.05;;;9.93;;
51883;SDS011;37915;53.254;6.598;2023-07-24T03:18:08;12.98;;;9.73;;
51883;SDS011;37915;53.254;6.598;2023-07-24T03:20:34;14.02;;;9.00;;
51883;SDS011;37915;53.254;6.598;2023-07-24T03:22:59;13.40;;;9.10;;
51883;SDS011;37915;53.254;6.598;2023-07-24T03:25:25;15.35;;;9.65;;
51883;SDS011;37915;53.254;6.598;2023-07-24T03:27:50;13.50;;;8.77;;
51883;SDS011;37915;53.254;6.598;2023-07-24T03:30:16;14.05;;;8.50;;
51883;SDS011;37915;53.254;6.598;2023-07-24T03:32:42;14.13;;;8.00;;
51883;SDS011;37915;53.254;6.598;2023-07-24T03:35:07;12.65;;;7.93;;
51883;SDS011;37915;53.254;6.598;2023-07-24T03:37:34;11.52;;;7.88;;
51883;SDS011;37915;53.254;6.598;2023-07-24T03:40:00;13.50;;;8.15;;
51883;SDS011;37915;53.254;6.598;2023-07-24T03:42:27;16.77;;;8.15;;
51883;SDS011;37915;53.254;6.598;2023-07-24T03:44:54;11.52;;;7.30;;
51883;SDS011;37915;53.254;6.598;2023-07-24T03:47:20;13.63;;;8.00;;
51883;SDS011;37915;53.254;6.598;2023-07-24T03:49:46;13.98;;;7.95;;
51883;SDS011;37915;53.254;6.598;2023-07-24T03:52:12;12.43;;;7.68;;
51883;SDS011;37915;53.254;6.598;2023-07-24T03:54:38;14.10;;;7.50;;
51883;SDS011;37915;53.254;6.598;2023-07-24T03:57:03;13.88;;;7.47;;
51883;SDS011;37915;53.254;6.598;2023-07-24T03:59:30;14.57;;;7.43;;
51883;SDS011;37915;53.254;6.598;2023-07-24T04:01:56;10.30;;;6.75;;
51883;SDS011;37915;53.254;6.598;2023-07-24T04:04:22;12.77;;;6.88;;
51883;SDS011;37915;53.254;6.598;2023-07-24T04:06:48;11.43;;;6.97;;
51883;SDS011;37915;53.254;6.598;2023-07-24T04:09:14;14.00;;;6.75;;
51883;SDS011;37915;53.254;6.598;2023-07-24T04:11:43;12.23;;;7.35;;
51883;SDS011;37915;53.254;6.598;2023-07-24T04:14:09;13.05;;;7.25;;
51883;SDS011;37915;53.254;6.598;2023-07-24T04:16:35;14.82;;;7.07;;
51883;SDS011;37915;53.254;6.598;2023-07-24T04:19:01;11.88;;;7.05;;
51883;SDS011;37915;53.254;6.598;2023-07-24T04:21:27;12.50;;;7.78;;
51883;SDS011;37915;53.254;6.598;2023-07-24T04:23:52;14.40;;;7.13;;
51883;SDS011;37915;53.254;6.598;2023-07-24T04:26:18;13.13;;;7.35;;
51883;SDS011;37915;53.254;6.598;2023-07-24T04:28:44;11.10;;;6.55;;
51883;SDS011;37915;53.254;6.598;2023-07-24T04:31:09;14.15;;;7.75;;
51883;SDS011;37915;53.254;6.598;2023-07-24T04:33:35;11.05;;;6.45;;
51883;SDS011;37915;53.254;6.598;2023-07-24T04:36:00;10.93;;;6.90;;
51883;SDS011;37915;53.254;6.598;2023-07-24T04:38:26;13.25;;;6.93;;
51883;SDS011;37915;53.254;6.598;2023-07-24T04:40:52;11.40;;;6.95;;
51883;SDS011;37915;53.254;6.598;2023-07-24T04:43:18;14.18;;;8.07;;
51883;SDS011;37915;53.254;6.598;2023-07-24T04:45:43;11.93;;;6.95;;
51883;SDS011;37915;53.254;6.598;2023-07-24T04:48:09;11.02;;;6.90;;
51883;SDS011;37915;53.254;6.598;2023-07-24T04:50:35;14.10;;;7.78;;
51883;SDS011;37915;53.254;6.598;2023-07-24T04:53:01;13.82;;;8.60;;
51883;SDS011;37915;53.254;6.598;2023-07-24T04:55:26;12.93;;;8.18;;
51883;SDS011;37915;53.254;6.598;2023-07-24T04:57:52;12.80;;;7.15;;
51883;SDS011;37915;53.254;6.598;2023-07-24T05:00:18;16.13;;;8.77;;
51883;SDS011;37915;53.254;6.598;2023-07-24T05:02:43;13.40;;;7.60;;
51883;SDS011;37915;53.254;6.598;2023-07-24T05:05:09;10.55;;;7.63;;
51883;SDS011;37915;53.254;6.598;2023-07-24T05:07:35;12.52;;;8.05;;
51883;SDS011;37915;53.254;6.598;2023-07-24T05:10:00;12.23;;;8.45;;
51883;SDS011;37915;53.254;6.598;2023-07-24T05:12:26;13.15;;;8.13;;
51883;SDS011;37915;53.254;6.598;2023-07-24T05:14:52;13.52;;;8.43;;
51883;SDS011;37915;53.254;6.598;2023-07-24T05:17:18;11.18;;;6.53;;
51883;SDS011;37915;53.254;6.598;2023-07-24T05:19:44;10.77;;;7.85;;
51883;SDS011;37915;53.254;6.598;2023-07-24T05:22:09;11.25;;;7.90;;
51883;SDS011;37915;53.254;6.598;2023-07-24T05:24:38;13.45;;;8.50;;
51883;SDS011;37915;53.254;6.598;2023-07-24T05:27:04;12.80;;;7.70;;
51883;SDS011;37915;53.254;6.598;2023-07-24T05:29:30;14.27;;;8.13;;
51883;SDS011;37915;53.254;6.598;2023-07-24T05:31:56;13.32;;;8.18;;
51883;SDS011;37915;53.254;6.598;2023-07-24T05:34:24;11.48;;;7.95;;
51883;SDS011;37915;53.254;6.598;2023-07-24T05:36:50;12.40;;;8.52;;
51883;SDS011;37915;53.254;6.598;2023-07-24T05:39:15;14.18;;;8.75;;
51883;SDS011;37915;53.254;6.598;2023-07-24T05:41:41;13.57;;;8.35;;
51883;SDS011;37915;53.254;6.598;2023-07-24T05:44:07;12.45;;;8.45;;
51883;SDS011;37915;53.254;6.598;2023-07-24T05:46:32;12.90;;;8.10;;
51883;SDS011;37915;53.254;6.598;2023-07-24T05:48:58;10.40;;;7.68;;
51883;SDS011;37915;53.254;6.598;2023-07-24T05:51:26;13.32;;;8.25;;
51883;SDS011;37915;53.254;6.598;2023-07-24T05:53:52;12.52;;;8.57;;
51883;SDS011;37915;53.254;6.598;2023-07-24T05:56:18;15.05;;;9.13;;
51883;SDS011;37915;53.254;6.598;2023-07-24T05:58:43;11.77;;;7.43;;
51883;SDS011;37915;53.254;6.598;2023-07-24T06:01:09;12.43;;;8.45;;
51883;SDS011;37915;53.254;6.598;2023-07-24T06:03:35;13.30;;;8.40;;
51883;SDS011;37915;53.254;6.598;2023-07-24T06:06:01;13.30;;;8.35;;
51883;SDS011;37915;53.254;6.598;2023-07-24T06:08:27;14.00;;;8.98;;
51883;SDS011;37915;53.254;6.598;2023-07-24T06:10:53;10.63;;;8.10;;
51883;SDS011;37915;53.254;6.598;2023-07-24T06:13:19;14.35;;;8.40;;
51883;SDS011;37915;53.254;6.598;2023-07-24T06:15:46;11.48;;;8.38;;
51883;SDS011;37915;53.254;6.598;2023-07-24T06:18:13;13.10;;;8.00;;
51883;SDS011;37915;53.254;6.598;2023-07-24T06:20:39;13.38;;;8.75;;
51883;SDS011;37915;53.254;6.598;2023-07-24T06:23:04;14.43;;;7.90;;
51883;SDS011;37915;53.254;6.598;2023-07-24T06:25:31;12.20;;;8.55;;
51883;SDS011;37915;53.254;6.598;2023-07-24T06:27:57;13.48;;;8.30;;
51883;SDS011;37915;53.254;6.598;2023-07-24T06:30:23;13.77;;;8.85;;
51883;SDS011;37915;53.254;6.598;2023-07-24T06:32:49;14.73;;;8.73;;
51883;SDS011;37915;53.254;6.598;2023-07-24T06:35:14;14.02;;;8.60;;
51883;SDS011;37915;53.254;6.598;2023-07-24T06:37:40;13.90;;;8.65;;
51883;SDS011;37915;53.254;6.598;2023-07-24T06:40:06;14.57;;;8.50;;
51883;SDS011;37915;53.254;6.598;2023-07-24T06:42:33;14.50;;;8.05;;
51883;SDS011;37915;53.254;6.598;2023-07-24T06:44:58;13.27;;;7.80;;
51883;SDS011;37915;53.254;6.598;2023-07-24T06:47:24;14.57;;;8.60;;
51883;SDS011;37915;53.254;6.598;2023-07-24T06:49:50;13.80;;;8.18;;
51883;SDS011;37915;53.254;6.598;2023-07-24T06:52:16;14.00;;;8.27;;
51883;SDS011;37915;53.254;6.598;2023-07-24T06:54:41;12.90;;;7.85;;
51883;SDS011;37915;53.254;6.598;2023-07-24T06:57:07;12.93;;;7.78;;
51883;SDS011;37915;53.254;6.598;2023-07-24T06:59:33;13.40;;;7.95;;
51883;SDS011;37915;53.254;6.598;2023-07-24T07:01:59;11.25;;;7.07;;
51883;SDS011;37915;53.254;6.598;2023-07-24T07:04:24;11.90;;;7.53;;
51883;SDS011;37915;53.254;6.598;2023-07-24T07:06:50;12.57;;;8.10;;
51883;SDS011;37915;53.254;6.598;2023-07-24T07:09:16;13.93;;;8.48;;
51883;SDS011;37915;53.254;6.598;2023-07-24T07:11:41;11.88;;;8.07;;
51883;SDS011;37915;53.254;6.598;2023-07-24T07:14:10;13.10;;;7.70;;
51883;SDS011;37915;53.254;6.598;2023-07-24T07:16:36;14.27;;;7.40;;
51883;SDS011;37915;53.254;6.598;2023-07-24T07:19:01;15.77;;;8.35;;
51883;SDS011;37915;53.254;6.598;2023-07-24T07:21:27;15.35;;;8.20;;
51883;SDS011;37915;53.254;6.598;2023-07-24T07:23:53;13.05;;;8.07;;
51883;SDS011;37915;53.254;6.598;2023-07-24T07:26:19;14.15;;;7.85;;
51883;SDS011;37915;53.254;6.598;2023-07-24T07:28:45;13.70;;;7.78;;
51883;SDS011;37915;53.254;6.598;2023-07-24T07:31:11;17.25;;;8.00;;
51883;SDS011;37915;53.254;6.598;2023-07-24T07:33:36;12.80;;;8.05;;
51883;SDS011;37915;53.254;6.598;2023-07-24T07:36:02;16.27;;;8.52;;
51883;SDS011;37915;53.254;6.598;2023-07-24T07:38:31;13.82;;;7.78;;
51883;SDS011;37915;53.254;6.598;2023-07-24T07:40:57;12.70;;;8.00;;
51883;SDS011;37915;53.254;6.598;2023-07-24T07:43:23;12.68;;;7.95;;
51883;SDS011;37915;53.254;6.598;2023-07-24T07:45:49;17.40;;;9.00;;
51883;SDS011;37915;53.254;6.598;2023-07-24T07:48:15;15.05;;;7.80;;
51883;SDS011;37915;53.254;6.598;2023-07-24T07:50:40;13.82;;;8.30;;
51883;SDS011;37915;53.254;6.598;2023-07-24T07:53:06;15.18;;;8.82;;
51883;SDS011;37915;53.254;6.598;2023-07-24T07:55:32;12.70;;;7.43;;
51883;SDS011;37915;53.254;6.598;2023-07-24T07:57:57;14.13;;;8.00;;
51883;SDS011;37915;53.254;6.598;2023-07-24T08:00:23;13.32;;;7.57;;
51883;SDS011;37915;53.254;6.598;2023-07-24T08:02:49;13.75;;;7.93;;
51883;SDS011;37915;53.254;6.598;2023-07-24T08:05:14;13.20;;;8.10;;
51883;SDS011;37915;53.254;6.598;2023-07-24T08:07:41;13.05;;;7.40;;
51883;SDS011;37915;53.254;6.598;2023-07-24T08:10:07;14.73;;;8.18;;
51883;SDS011;37915;53.254;6.598;2023-07-24T08:12:33;14.80;;;8.20;;
51883;SDS011;37915;53.254;6.598;2023-07-24T08:14:58;12.73;;;7.78;;
51883;SDS011;37915;53.254;6.598;2023-07-24T08:17:24;19.55;;;8.15;;
51883;SDS011;37915;53.254;6.598;2023-07-24T08:19:50;15.48;;;7.82;;
51883;SDS011;37915;53.254;6.598;2023-07-24T08:22:15;15.32;;;7.88;;
51883;SDS011;37915;53.254;6.598;2023-07-24T08:24:41;11.73;;;6.68;;
51883;SDS011;37915;53.254;6.598;2023-07-24T08:27:07;13.27;;;6.30;;
51883;SDS011;37915;53.254;6.598;2023-07-24T08:29:32;13.85;;;7.53;;
51883;SDS011;37915;53.254;6.598;2023-07-24T08:32:00;12.55;;;7.10;;
51883;SDS011;37915;53.254;6.598;2023-07-24T08:34:25;12.93;;;7.60;;
51883;SDS011;37915;53.254;6.598;2023-07-24T08:36:51;15.90;;;7.25;;
51883;SDS011;37915;53.254;6.598;2023-07-24T08:39:17;14.98;;;7.40;;
51883;SDS011;37915;53.254;6.598;2023-07-24T08:41:42;13.82;;;7.03;;
51883;SDS011;37915;53.254;6.598;2023-07-24T08:44:08;13.35;;;6.43;;
51883;SDS011;37915;53.254;6.598;2023-07-24T08:46:37;11.82;;;6.25;;
51883;SDS011;37915;53.254;6.598;2023-07-24T08:49:06;14.13;;;7.57;;
51883;SDS011;37915;53.254;6.598;2023-07-24T08:51:36;13.23;;;7.22;;
51883;SDS011;37915;53.254;6.598;2023-07-24T08:54:03;11.98;;;6.40;;
51883;SDS011;37915;53.254;6.598;2023-07-24T08:56:29;12.98;;;7.10;;
51883;SDS011;37915;53.254;6.598;2023-07-24T08:58:55;12.15;;;6.95;;
51883;SDS011;37915;53.254;6.598;2023-07-24T09:01:21;13.32;;;7.03;;
51883;SDS011;37915;53.254;6.598;2023-07-24T09:03:47;14.73;;;7.53;;
51883;SDS011;37915;53.254;6.598;2023-07-24T09:06:12;13.25;;;6.68;;
51883;SDS011;37915;53.254;6.598;2023-07-24T09:08:39;15.23;;;6.80;;
51883;SDS011;37915;53.254;6.598;2023-07-24T09:11:06;11.43;;;6.70;;
51883;SDS011;37915;53.254;6.598;2023-07-24T09:13:35;12.93;;;6.80;;
51883;SDS011;37915;53.254;6.598;2023-07-24T09:16:01;12.18;;;6.70;;
51883;SDS011;37915;53.254;6.598;2023-07-24T09:18:38;10.57;;;6.13;;
51883;SDS011;37915;53.254;6.598;2023-07-24T09:21:05;12.25;;;7.05;;
51883;SDS011;37915;53.254;6.598;2023-07-24T09:23:31;11.50;;;5.88;;
51883;SDS011;37915;53.254;6.598;2023-07-24T09:25:56;10.45;;;6.97;;
51883;SDS011;37915;53.254;6.598;2023-07-24T09:28:22;14.10;;;6.80;;
51883;SDS011;37915;53.254;6.598;2023-07-24T09:30:55;11.35;;;6.63;;
51883;SDS011;37915;53.254;6.598;2023-07-24T09:33:43;11.82;;;6.13;;
51883;SDS011;37915;53.254;6.598;2023-07-24T09:36:12;14.93;;;6.55;;
51883;SDS011;37915;53.254;6.598;2023-07-24T09:38:38;12.15;;;7.00;;
51883;SDS011;37915;53.254;6.598;2023-07-24T09:41:05;14.73;;;7.07;;
51883;SDS011;37915;53.254;6.598;2023-07-24T09:43:31;12.73;;;6.82;;
51883;SDS011;37915;53.254;6.598;2023-07-24T09:45:57;13.20;;;6.97;;
51883;SDS011;37915;53.254;6.598;2023-07-24T09:48:24;14.25;;;6.30;;
51883;SDS011;37915;53.254;6.598;2023-07-24T09:50:55;13.55;;;6.72;;
51883;SDS011;37915;53.254;6.598;2023-07-24T09:53:24;12.05;;;6.10;;
51883;SDS011;37915;53.254;6.598;2023-07-24T09:56:00;10.98;;;5.80;;
51883;SDS011;37915;53.254;6.598;2023-07-24T09:58:32;13.10;;;6.53;;
51883;SDS011;37915;53.254;6.598;2023-07-24T10:01:00;15.13;;;6.57;;
51883;SDS011;37915;53.254;6.598;2023-07-24T10:03:28;12.98;;;6.43;;
51883;SDS011;37915;53.254;6.598;2023-07-24T10:05:55;10.65;;;5.97;;
51883;SDS011;37915;53.254;6.598;2023-07-24T10:08:21;12.65;;;5.72;;
51883;SDS011;37915;53.254;6.598;2023-07-24T10:10:47;10.02;;;5.88;;
51883;SDS011;37915;53.254;6.598;2023-07-24T10:13:16;9.38;;;5.53;;
51883;SDS011;37915;53.254;6.598;2023-07-24T10:15:43;10.52;;;5.57;;
51883;SDS011;37915;53.254;6.598;2023-07-24T10:18:11;10.70;;;5.30;;
51883;SDS011;37915;53.254;6.598;2023-07-24T10:20:38;10.05;;;5.13;;
51883;SDS011;37915;53.254;6.598;2023-07-24T10:23:06;9.32;;;5.70;;
51883;SDS011;37915;53.254;6.598;2023-07-24T10:25:34;9.95;;;5.47;;
51883;SDS011;37915;53.254;6.598;2023-07-24T10:28:08;9.32;;;5.72;;
51883;SDS011;37915;53.254;6.598;2023-07-24T10:30:41;10.25;;;6.65;;
51883;SDS011;37915;53.254;6.598;2023-07-24T10:33:08;11.48;;;6.93;;
51883;SDS011;37915;53.254;6.598;2023-07-24T10:35:37;9.55;;;6.15;;
51883;SDS011;37915;53.254;6.598;2023-07-24T10:38:14;9.68;;;6.70;;
51883;SDS011;37915;53.254;6.598;2023-07-24T10:40:41;11.68;;;7.07;;
51883;SDS011;37915;53.254;6.598;2023-07-24T10:43:09;10.43;;;6.68;;
51883;SDS011;37915;53.254;6.598;2023-07-24T10:48:10;7.80;;;4.22;;
51883;SDS011;37915;53.254;6.598;2023-07-24T10:50:40;7.25;;;3.63;;
51883;SDS011;37915;53.254;6.598;2023-07-24T10:53:08;7.40;;;3.95;;
51883;SDS011;37915;53.254;6.598;2023-07-24T10:55:34;5.47;;;3.20;;
51883;SDS011;37915;53.254;6.598;2023-07-24T10:58:00;8.50;;;3.63;;
51883;SDS011;37915;53.254;6.598;2023-07-24T11:00:26;7.38;;;3.42;;
51883;SDS011;37915;53.254;6.598;2023-07-24T11:02:53;6.00;;;3.55;;
51883;SDS011;37915;53.254;6.598;2023-07-24T11:05:20;6.65;;;3.47;;
51883;SDS011;37915;53.254;6.598;2023-07-24T11:07:47;9.20;;;4.38;;
51883;SDS011;37915;53.254;6.598;2023-07-24T11:10:19;8.10;;;4.68;;
51883;SDS011;37915;53.254;6.598;2023-07-24T11:12:46;7.25;;;4.28;;
51883;SDS011;37915;53.254;6.598;2023-07-24T11:15:12;10.68;;;4.20;;
51883;SDS011;37915;53.254;6.598;2023-07-24T11:17:39;8.63;;;4.40;;
51883;SDS011;37915;53.254;6.598;2023-07-24T11:22:39;9.55;;;4.90;;
51883;SDS011;37915;53.254;6.598;2023-07-24T11:25:06;10.70;;;4.97;;
51883;SDS011;37915;53.254;6.598;2023-07-24T11:27:33;8.82;;;5.15;;
51883;SDS011;37915;53.254;6.598;2023-07-24T11:30:02;9.45;;;4.70;;
51883;SDS011;37915;53.254;6.598;2023-07-24T11:32:28;9.05;;;4.82;;
51883;SDS011;37915;53.254;6.598;2023-07-24T11:34:54;7.88;;;4.85;;
51883;SDS011;37915;53.254;6.598;2023-07-24T11:37:20;8.45;;;5.00;;
51883;SDS011;37915;53.254;6.598;2023-07-24T11:39:58;8.80;;;4.85;;
51883;SDS011;37915;53.254;6.598;2023-07-24T11:42:29;10.85;;;5.22;;
51883;SDS011;37915;53.254;6.598;2023-07-24T11:44:55;12.15;;;5.20;;
51883;SDS011;37915;53.254;6.598;2023-07-24T11:47:25;9.38;;;5.97;;
51883;SDS011;37915;53.254;6.598;2023-07-24T11:50:00;10.07;;;5.90;;
51883;SDS011;37915;53.254;6.598;2023-07-24T11:52:36;11.07;;;5.65;;
51883;SDS011;37915;53.254;6.598;2023-07-24T11:55:14;9.77;;;6.15;;
51883;SDS011;37915;53.254;6.598;2023-07-24T11:57:54;10.98;;;6.50;;
51883;SDS011;37915;53.254;6.598;2023-07-24T12:00:22;7.35;;;5.45;;
51883;SDS011;37915;53.254;6.598;2023-07-24T12:02:48;8.95;;;4.82;;
51883;SDS011;37915;53.254;6.598;2023-07-24T12:05:14;9.07;;;4.93;;
51883;SDS011;37915;53.254;6.598;2023-07-24T12:07:39;10.68;;;4.93;;
51883;SDS011;37915;53.254;6.598;2023-07-24T12:10:09;7.40;;;4.70;;
51883;SDS011;37915;53.254;6.598;2023-07-24T12:12:44;11.00;;;4.80;;
51883;SDS011;37915;53.254;6.598;2023-07-24T12:15:11;7.57;;;4.30;;
51883;SDS011;37915;53.254;6.598;2023-07-24T12:17:38;8.70;;;4.50;;
51883;SDS011;37915;53.254;6.598;2023-07-24T12:20:04;10.43;;;4.95;;
51883;SDS011;37915;53.254;6.598;2023-07-24T12:22:33;10.82;;;5.47;;
51883;SDS011;37915;53.254;6.598;2023-07-24T12:25:00;12.40;;;6.10;;
51883;SDS011;37915;53.254;6.598;2023-07-24T12:27:26;11.82;;;7.03;;
51883;SDS011;37915;53.254;6.598;2023-07-24T12:29:52;16.17;;;8.02;;
51883;SDS011;37915;53.254;6.598;2023-07-24T12:32:17;13.35;;;6.65;;
51883;SDS011;37915;53.254;6.598;2023-07-24T12:34:46;18.15;;;7.22;;
51883;SDS011;37915;53.254;6.598;2023-07-24T12:37:12;16.88;;;7.07;;
51883;SDS011;37915;53.254;6.598;2023-07-24T12:39:38;11.70;;;6.70;;
51883;SDS011;37915;53.254;6.598;2023-07-24T12:42:04;13.15;;;6.60;;
51883;SDS011;37915;53.254;6.598;2023-07-24T12:44:31;12.52;;;7.15;;
51883;SDS011;37915;53.254;6.598;2023-07-24T12:46:57;10.73;;;6.82;;
51883;SDS011;37915;53.254;6.598;2023-07-24T12:49:22;14.20;;;7.07;;
51883;SDS011;37915;53.254;6.598;2023-07-24T12:51:48;13.55;;;7.78;;
51883;SDS011;37915;53.254;6.598;2023-07-24T12:54:14;13.23;;;7.07;;
51883;SDS011;37915;53.254;6.598;2023-07-24T12:56:40;11.90;;;7.72;;
51883;SDS011;37915;53.254;6.598;2023-07-24T12:59:06;12.18;;;7.97;;
51883;SDS011;37915;53.254;6.598;2023-07-24T13:01:32;12.57;;;7.30;;
51883;SDS011;37915;53.254;6.598;2023-07-24T13:03:57;11.18;;;8.10;;
51883;SDS011;37915;53.254;6.598;2023-07-24T13:06:23;10.05;;;6.68;;
51883;SDS011;37915;53.254;6.598;2023-07-24T13:08:49;11.48;;;7.68;;
51883;SDS011;37915;53.254;6.598;2023-07-24T13:11:15;9.10;;;7.00;;
51883;SDS011;37915;53.254;6.598;2023-07-24T13:13:41;11.55;;;7.55;;
51883;SDS011;37915;53.254;6.598;2023-07-24T13:16:07;10.93;;;7.95;;
51883;SDS011;37915;53.254;6.598;2023-07-24T13:18:32;9.85;;;7.75;;
51883;SDS011;37915;53.254;6.598;2023-07-24T13:20:58;10.30;;;7.85;;
51883;SDS011;37915;53.254;6.598;2023-07-24T13:23:24;11.10;;;7.57;;
51883;SDS011;37915;53.254;6.598;2023-07-24T13:25:51;9.48;;;7.10;;
51883;SDS011;37915;53.254;6.598;2023-07-24T13:28:18;10.10;;;6.97;;
51883;SDS011;37915;53.254;6.598;2023-07-24T13:30:43;10.10;;;6.50;;
51883;SDS011;37915;53.254;6.598;2023-07-24T13:33:10;8.80;;;5.90;;
51883;SDS011;37915;53.254;6.598;2023-07-24T13:35:35;5.53;;;3.78;;
51883;SDS011;37915;53.254;6.598;2023-07-24T13:38:01;6.13;;;3.00;;
51883;SDS011;37915;53.254;6.598;2023-07-24T13:40:26;4.10;;;2.33;;
51883;SDS011;37915;53.254;6.598;2023-07-24T13:42:52;5.03;;;2.47;;
51883;SDS011;37915;53.254;6.598;2023-07-24T13:45:18;8.43;;;2.58;;
51883;SDS011;37915;53.254;6.598;2023-07-24T13:47:44;6.85;;;2.40;;
51883;SDS011;37915;53.254;6.598;2023-07-24T13:50:09;7.45;;;2.20;;
51883;SDS011;37915;53.254;6.598;2023-07-24T13:52:35;7.70;;;2.55;;
51883;SDS011;37915;53.254;6.598;2023-07-24T13:55:02;6.82;;;2.63;;
51883;SDS011;37915;53.254;6.598;2023-07-24T13:57:28;6.22;;;2.00;;
51883;SDS011;37915;53.254;6.598;2023-07-24T13:59:53;6.13;;;2.17;;
51883;SDS011;37915;53.254;6.598;2023-07-24T14:02:19;9.57;;;2.70;;
51883;SDS011;37915;53.254;6.598;2023-07-24T14:04:45;5.78;;;2.35;;
51883;SDS011;37915;53.254;6.598;2023-07-24T14:07:10;6.57;;;2.67;;
51883;SDS011;37915;53.254;6.598;2023-07-24T14:09:38;10.68;;;2.90;;
51883;SDS011;37915;53.254;6.598;2023-07-24T14:12:04;9.45;;;3.58;;
51883;SDS011;37915;53.254;6.598;2023-07-24T14:14:30;10.13;;;3.70;;
51883;SDS011;37915;53.254;6.598;2023-07-24T14:16:56;14.05;;;3.67;;
51883;SDS011;37915;53.254;6.598;2023-07-24T14:19:22;8.57;;;2.83;;
51883;SDS011;37915;53.254;6.598;2023-07-24T14:21:49;10.90;;;3.60;;
51883;SDS011;37915;53.254;6.598;2023-07-24T14:24:15;9.65;;;2.63;;
51883;SDS011;37915;53.254;6.598;2023-07-24T14:26:41;11.40;;;3.30;;
51883;SDS011;37915;53.254;6.598;2023-07-24T14:29:07;10.98;;;2.70;;
51883;SDS011;37915;53.254;6.598;2023-07-24T14:31:32;8.77;;;3.13;;
51883;SDS011;37915;53.254;6.598;2023-07-24T14:33:58;8.75;;;2.53;;
51883;SDS011;37915;53.254;6.598;2023-07-24T14:36:24;12.20;;;2.92;;
51883;SDS011;37915;53.254;6.598;2023-07-24T14:38:49;9.57;;;2.85;;
51883;SDS011;37915;53.254;6.598;2023-07-24T14:41:16;7.13;;;2.40;;